createdAt,value
2022-12-01T00:01:45.085Z,71.11
2022-12-01T00:04:16.119Z,71.21
2022-12-01T00:06:47.194Z,71.18
2022-12-01T00:09:36.064Z,71.23
2022-12-01T00:12:07.378Z,71.18
2022-12-01T00:14:38.615Z,71.13
2022-12-01T00:17:09.791Z,71.14
2022-12-01T00:19:41.265Z,71.08
2022-12-01T00:22:12.191Z,71.00
2022-12-01T00:24:43.175Z,70.99
2022-12-01T00:27:13.986Z,71.05
2022-12-01T00:29:44.846Z,71.02
2022-12-01T00:32:15.944Z,70.89
2022-12-01T00:34:46.852Z,70.75
2022-12-01T00:37:17.742Z,70.77
2022-12-01T00:39:49.150Z,70.76
2022-12-01T00:42:21.273Z,70.82
2022-12-01T00:44:52.122Z,70.76
2022-12-01T00:47:23.075Z,70.92
2022-12-01T00:49:54.024Z,70.85
2022-12-01T00:52:25.045Z,70.86
2022-12-01T00:54:55.902Z,70.90
2022-12-01T00:57:26.957Z,70.92
2022-12-01T00:59:58.246Z,70.80
2022-12-01T01:02:29.162Z,70.84
2022-12-01T01:05:00.245Z,70.84
2022-12-01T01:07:32.311Z,70.89
2022-12-01T01:10:03.225Z,70.94
2022-12-01T01:12:34.005Z,70.94
2022-12-01T01:15:05.858Z,70.91
2022-12-01T01:17:36.656Z,70.87
2022-12-01T01:20:07.960Z,70.90
2022-12-01T01:22:38.756Z,70.89
2022-12-01T01:25:10.241Z,70.91
2022-12-01T01:27:41.171Z,70.87
2022-12-01T01:30:12.614Z,70.79
2022-12-01T01:32:43.474Z,70.76
2022-12-01T01:35:14.398Z,70.62
2022-12-01T01:37:45.300Z,70.59
2022-12-01T01:40:17.099Z,70.62
2022-12-01T01:42:47.927Z,70.60
2022-12-01T01:45:20.356Z,70.59
2022-12-01T01:47:52.976Z,70.55
2022-12-01T01:50:25.265Z,70.71
2022-12-01T01:53:00.305Z,70.65
2022-12-01T01:55:32.669Z,70.75
2022-12-01T01:58:05.256Z,70.70
2022-12-01T02:00:37.197Z,70.60
2022-12-01T02:03:09.183Z,70.56
2022-12-01T02:05:40.632Z,70.45
2022-12-01T02:08:13.255Z,70.47
2022-12-01T02:11:01.740Z,70.39
2022-12-01T02:13:51.435Z,70.37
2022-12-01T02:16:26.486Z,70.49
2022-12-01T02:19:04.872Z,70.42
2022-12-01T02:21:55.615Z,70.45
2022-12-01T02:24:33.727Z,70.45
2022-12-01T02:27:22.693Z,70.46
2022-12-01T02:29:57.598Z,70.66
2022-12-01T02:32:36.461Z,70.56
2022-12-01T02:35:17.868Z,70.62
2022-12-01T02:38:02.198Z,70.70
2022-12-01T02:40:35.021Z,70.65
2022-12-01T02:43:10.171Z,70.55
2022-12-01T02:45:42.515Z,70.52
2022-12-01T02:48:14.973Z,70.58
2022-12-01T02:50:46.743Z,70.56
2022-12-01T02:53:19.141Z,70.56
2022-12-01T02:55:54.382Z,70.58
2022-12-01T02:58:25.571Z,70.58
2022-12-01T03:01:00.972Z,70.59
2022-12-01T03:03:42.463Z,70.56
2022-12-01T03:06:15.266Z,70.55
2022-12-01T03:08:47.578Z,70.58
2022-12-01T03:11:21.566Z,70.55
2022-12-01T03:13:54.203Z,70.57
2022-12-01T03:16:32.683Z,70.64
2022-12-01T03:19:07.658Z,70.64
2022-12-01T03:21:41.771Z,70.40
2022-12-01T03:24:14.157Z,70.34
2022-12-01T03:26:46.676Z,70.29
2022-12-01T03:29:19.128Z,70.34
2022-12-01T03:31:51.476Z,70.47
2022-12-01T03:34:24.506Z,70.37
2022-12-01T03:36:59.809Z,70.36
2022-12-01T03:39:33.751Z,70.36
2022-12-01T03:42:06.856Z,70.35
2022-12-01T03:44:39.122Z,70.35
2022-12-01T03:47:14.982Z,70.50
2022-12-01T03:49:47.396Z,70.40
2022-12-01T03:52:23.473Z,70.35
2022-12-01T03:55:02.080Z,70.43
2022-12-01T03:57:34.899Z,70.30
2022-12-01T04:00:07.063Z,70.33
2022-12-01T04:02:40.492Z,70.29
2022-12-01T04:05:11.672Z,70.12
2022-12-01T04:07:43.452Z,70.12
2022-12-01T04:10:14.782Z,70.05
2022-12-01T04:12:46.014Z,70.00
2022-12-01T04:15:17.253Z,69.73
2022-12-01T04:17:48.702Z,69.76
2022-12-01T04:20:19.601Z,69.78
2022-12-01T04:22:50.848Z,69.69
2022-12-01T04:25:22.155Z,69.55
2022-12-01T04:27:53.455Z,69.48
2022-12-01T04:30:25.327Z,69.42
2022-12-01T04:32:56.593Z,69.41
2022-12-01T04:35:28.164Z,69.35
2022-12-01T04:37:59.391Z,69.37
2022-12-01T04:40:30.609Z,69.29
2022-12-01T04:43:01.664Z,69.30
2022-12-01T04:45:32.655Z,69.36
2022-12-01T04:48:03.615Z,69.38
2022-12-01T04:50:34.757Z,69.41
2022-12-01T04:53:05.878Z,69.70
2022-12-01T04:55:39.763Z,69.58
2022-12-01T04:58:11.087Z,69.57
2022-12-01T05:00:43.498Z,69.46
2022-12-01T05:03:16.036Z,69.44
2022-12-01T05:05:47.092Z,69.44
2022-12-01T05:08:18.386Z,69.47
2022-12-01T05:10:49.720Z,69.69
2022-12-01T05:13:21.202Z,69.60
2022-12-01T05:15:56.359Z,69.60
2022-12-01T05:18:28.203Z,69.59
2022-12-01T05:20:59.744Z,69.59
2022-12-01T05:23:33.193Z,69.68
2022-12-01T05:26:05.977Z,69.68
2022-12-01T05:28:37.702Z,69.65
2022-12-01T05:31:08.868Z,69.51
2022-12-01T05:33:40.348Z,69.49
2022-12-01T05:36:11.388Z,69.54
2022-12-01T05:41:22.634Z,69.33
2022-12-01T05:43:54.822Z,69.39
2022-12-01T05:46:25.864Z,69.23
2022-12-01T05:48:57.597Z,69.22
2022-12-01T05:51:30.226Z,69.14
2022-12-01T05:54:01.271Z,69.09
2022-12-01T05:56:32.851Z,69.07
2022-12-01T05:59:04.175Z,69.02
2022-12-01T06:01:35.692Z,68.90
2022-12-01T06:04:07.308Z,68.84
2022-12-01T06:06:38.815Z,68.68
2022-12-01T06:09:10.261Z,68.61
2022-12-01T06:11:59.273Z,68.57
2022-12-01T06:14:30.794Z,68.62
2022-12-01T06:17:03.211Z,68.65
2022-12-01T06:19:34.761Z,68.61
2022-12-01T06:22:06.901Z,68.57
2022-12-01T06:24:38.013Z,68.57
2022-12-01T06:27:10.127Z,68.62
2022-12-01T06:29:42.375Z,68.65
2022-12-01T06:32:13.874Z,68.66
2022-12-01T06:34:44.758Z,68.69
2022-12-01T06:37:16.205Z,68.65
2022-12-01T06:39:48.125Z,68.28
2022-12-01T06:42:19.779Z,68.23
2022-12-01T06:44:51.834Z,68.21
2022-12-01T06:47:23.482Z,68.22
2022-12-01T06:49:56.509Z,67.77
2022-12-01T06:52:28.967Z,67.93
2022-12-01T06:55:00.761Z,67.70
2022-12-01T06:57:32.114Z,67.69
2022-12-01T07:00:04.595Z,67.73
2022-12-01T07:02:37.280Z,67.78
2022-12-01T07:05:08.609Z,67.85
2022-12-01T07:07:40.476Z,67.92
2022-12-01T07:10:12.481Z,67.77
2022-12-01T07:12:43.771Z,67.90
2022-12-01T07:15:14.990Z,67.98
2022-12-01T07:17:46.135Z,68.04
2022-12-01T07:20:17.049Z,68.10
2022-12-01T07:22:48.475Z,67.75
2022-12-01T07:25:19.573Z,67.30
2022-12-01T07:27:50.924Z,67.62
2022-12-01T07:30:28.102Z,67.77
2022-12-01T07:32:55.883Z,67.38
2022-12-01T07:35:27.521Z,67.30
2022-12-01T07:37:59.152Z,67.49
2022-12-01T07:40:30.540Z,67.10
2022-12-01T07:43:02.252Z,67.29
2022-12-01T07:45:33.566Z,67.65
2022-12-01T07:48:05.323Z,67.40
2022-12-01T07:50:36.594Z,67.21
2022-12-01T07:53:08.377Z,67.57
2022-12-01T07:55:39.867Z,67.33
2022-12-01T07:58:11.118Z,66.63
2022-12-01T08:00:42.093Z,65.86
2022-12-01T08:03:13.150Z,65.98
2022-12-01T08:05:44.278Z,65.19
2022-12-01T08:08:16.328Z,64.51
2022-12-01T08:10:47.411Z,64.34
2022-12-01T08:13:18.202Z,64.23
2022-12-01T08:15:49.225Z,63.94
2022-12-01T08:18:21.189Z,63.62
2022-12-01T08:20:53.125Z,63.01
2022-12-01T08:23:24.542Z,62.32
2022-12-01T08:25:55.616Z,62.21
2022-12-01T08:28:27.350Z,61.96
2022-12-01T08:30:59.339Z,61.84
2022-12-01T08:33:31.702Z,61.95
2022-12-01T08:36:03.322Z,61.77
2022-12-01T08:38:35.275Z,61.70
2022-12-01T08:41:08.396Z,61.36
2022-12-01T08:43:57.334Z,61.31
2022-12-01T08:46:14.316Z,61.27
2022-12-01T08:48:45.602Z,61.41
2022-12-01T08:51:17.832Z,60.76
2022-12-01T08:53:50.551Z,61.66
2022-12-01T08:56:26.382Z,61.71
2022-12-01T08:58:58.572Z,61.88
2022-12-01T09:01:29.824Z,62.24
2022-12-01T09:04:09.247Z,61.99
2022-12-01T09:06:42.335Z,61.91
2022-12-01T09:09:17.902Z,62.22
2022-12-01T09:11:49.589Z,61.92
2022-12-01T09:14:21.486Z,62.08
2022-12-01T09:16:52.906Z,61.40
2022-12-01T09:19:25.317Z,61.59
2022-12-01T09:21:56.713Z,61.37
2022-12-01T09:24:28.211Z,61.49
2022-12-01T09:27:02.062Z,61.19
2022-12-01T09:29:33.624Z,61.24
2022-12-01T09:32:05.247Z,61.53
2022-12-01T09:34:37.088Z,61.62
2022-12-01T09:37:09.275Z,61.87
2022-12-01T09:39:42.361Z,61.59
2022-12-01T09:42:15.684Z,62.13
2022-12-01T09:44:53.645Z,61.54
2022-12-01T09:47:29.593Z,61.89
2022-12-01T09:50:08.804Z,61.50
2022-12-01T09:52:45.231Z,61.46
2022-12-01T09:55:17.492Z,62.31
2022-12-01T09:57:49.839Z,62.22
2022-12-01T10:00:22.378Z,62.31
2022-12-01T10:02:57.883Z,62.19
2022-12-01T10:05:30.342Z,62.48
2022-12-01T10:08:03.763Z,62.62
2022-12-01T10:10:36.730Z,61.74
2022-12-01T10:13:09.737Z,61.88
2022-12-01T10:15:45.367Z,61.90
2022-12-01T10:18:17.652Z,62.00
2022-12-01T10:20:50.043Z,62.17
2022-12-01T10:23:32.952Z,62.18
2022-12-01T10:26:05.975Z,62.27
2022-12-01T10:28:38.591Z,62.20
2022-12-01T10:31:11.368Z,62.10
2022-12-01T10:33:47.220Z,62.00
2022-12-01T10:36:18.186Z,61.80
2022-12-01T10:38:49.098Z,61.62
2022-12-01T10:41:21.663Z,61.06
2022-12-01T10:43:53.260Z,61.08
2022-12-01T10:46:28.879Z,61.03
2022-12-01T10:49:01.140Z,61.09
2022-12-01T10:51:32.113Z,61.02
2022-12-01T10:54:11.723Z,61.20
2022-12-01T10:56:44.122Z,61.14
2022-12-01T10:59:31.992Z,61.29
2022-12-01T11:02:03.913Z,61.33
2022-12-01T11:04:49.421Z,61.45
2022-12-01T11:07:22.448Z,61.52
2022-12-01T11:09:57.804Z,61.44
2022-12-01T11:12:28.895Z,61.52
2022-12-01T11:15:00.575Z,61.49
2022-12-01T11:17:46.071Z,61.47
2022-12-01T11:20:24.174Z,61.60
2022-12-01T11:23:13.497Z,61.63
2022-12-01T11:25:45.966Z,61.68
2022-12-01T11:28:19.809Z,61.72
2022-12-01T11:30:56.561Z,61.70
2022-12-01T11:33:25.857Z,61.72
2022-12-01T11:35:56.907Z,61.53
2022-12-01T11:38:30.329Z,61.13
2022-12-01T11:41:02.190Z,60.93
2022-12-01T11:43:34.912Z,61.01
2022-12-01T11:46:10.206Z,61.07
2022-12-01T11:48:41.595Z,61.19
2022-12-01T11:51:14.490Z,61.24
2022-12-01T11:53:46.561Z,61.28
2022-12-01T11:56:28.969Z,61.24
2022-12-01T11:59:05.353Z,60.79
2022-12-01T12:01:44.189Z,60.63
2022-12-01T12:04:32.963Z,60.68
2022-12-01T12:07:12.037Z,60.71
2022-12-01T12:09:56.621Z,60.83
2022-12-01T12:12:35.830Z,61.01
2022-12-01T12:15:08.827Z,61.02
2022-12-01T12:17:50.659Z,61.16
2022-12-01T12:20:26.341Z,61.15
2022-12-01T12:23:10.683Z,61.17
2022-12-01T12:25:49.937Z,61.32
2022-12-01T12:28:26.102Z,61.42
2022-12-01T12:31:15.013Z,61.47
2022-12-01T12:33:48.161Z,61.62
2022-12-01T12:36:24.321Z,61.71
2022-12-01T12:38:57.444Z,61.67
2022-12-01T12:41:41.794Z,61.61
2022-12-01T12:44:24.032Z,61.76
2022-12-01T12:47:05.625Z,61.77
2022-12-01T12:49:47.586Z,61.93
2022-12-01T12:52:24.075Z,62.23
2022-12-01T12:54:56.897Z,62.20
2022-12-01T12:57:33.034Z,62.36
2022-12-01T13:00:06.464Z,62.17
2022-12-01T13:02:39.584Z,62.11
2022-12-01T13:05:12.323Z,62.15
2022-12-01T13:07:50.479Z,62.33
2022-12-01T13:10:23.782Z,62.48
2022-12-01T13:12:59.594Z,62.31
2022-12-01T13:15:31.728Z,62.34
2022-12-01T13:18:05.210Z,62.39
2022-12-01T13:20:37.922Z,62.47
2022-12-01T13:23:10.966Z,62.57
2022-12-01T13:25:43.592Z,62.65
2022-12-01T13:28:16.237Z,62.67
2022-12-01T13:31:05.415Z,62.70
2022-12-01T13:33:37.826Z,62.71
2022-12-01T13:38:43.344Z,62.76
2022-12-01T13:41:21.946Z,62.85
2022-12-01T13:43:54.684Z,62.80
2022-12-01T13:46:27.466Z,62.79
2022-12-01T13:48:59.771Z,62.83
2022-12-01T13:51:32.456Z,62.86
2022-12-01T13:54:05.708Z,62.89
2022-12-01T13:56:39.473Z,62.91
2022-12-01T13:59:29.075Z,62.96
2022-12-01T14:02:17.337Z,62.97
2022-12-01T14:04:49.236Z,63.04
2022-12-01T14:07:25.117Z,63.01
2022-12-01T14:09:57.497Z,63.01
2022-12-01T14:12:32.106Z,63.04
2022-12-01T14:15:04.469Z,63.01
2022-12-01T14:17:36.826Z,63.04
2022-12-01T14:20:09.208Z,63.16
2022-12-01T14:22:42.229Z,63.13
2022-12-01T14:25:23.828Z,63.10
2022-12-01T14:27:56.748Z,63.15
2022-12-01T14:30:38.828Z,63.12
2022-12-01T14:33:27.885Z,63.06
2022-12-01T14:36:03.082Z,63.12
2022-12-01T14:38:34.701Z,63.10
2022-12-01T14:41:09.964Z,63.10
2022-12-01T14:44:00.148Z,63.17
2022-12-01T14:46:33.272Z,63.23
2022-12-01T14:49:05.939Z,63.24
2022-12-01T14:51:37.403Z,63.24
2022-12-01T14:54:10.493Z,63.42
2022-12-01T14:56:42.981Z,63.45
2022-12-01T14:59:22.886Z,63.40
2022-12-01T15:01:55.180Z,63.53
2022-12-01T15:04:26.455Z,63.48
2022-12-01T15:06:57.665Z,63.48
2022-12-01T15:09:36.189Z,63.49
2022-12-01T15:12:04.051Z,63.50
2022-12-01T15:14:36.245Z,63.55
2022-12-01T15:17:09.323Z,63.51
2022-12-01T15:19:42.133Z,63.55
2022-12-01T15:22:15.020Z,63.59
2022-12-01T15:24:46.628Z,63.57
2022-12-01T15:27:31.086Z,63.65
2022-12-01T15:30:04.290Z,63.66
2022-12-01T15:32:38.684Z,63.68
2022-12-01T15:35:11.103Z,63.69
2022-12-01T15:37:46.507Z,63.70
2022-12-01T15:43:02.553Z,63.72
2022-12-01T15:45:35.533Z,63.73
2022-12-01T15:48:08.458Z,63.83
2022-12-01T15:50:46.227Z,63.79
2022-12-01T15:53:22.269Z,63.82
2022-12-01T15:55:58.728Z,63.84
2022-12-01T15:58:31.842Z,63.88
2022-12-01T16:01:04.834Z,63.87
2022-12-01T16:03:37.443Z,63.80
2022-12-01T16:06:11.620Z,63.84
2022-12-01T16:08:43.170Z,63.92
2022-12-01T16:11:15.740Z,63.87
2022-12-01T16:14:00.963Z,63.90
2022-12-01T16:16:33.458Z,63.96
2022-12-01T16:19:11.950Z,63.94
2022-12-01T16:21:44.706Z,63.96
2022-12-01T16:24:23.325Z,64.04
2022-12-01T16:26:56.191Z,64.03
2022-12-01T16:29:28.511Z,63.99
2022-12-01T16:34:46.307Z,64.07
2022-12-01T16:37:10.134Z,64.02
2022-12-01T16:39:42.092Z,64.03
2022-12-01T16:42:16.499Z,64.20
2022-12-01T16:44:48.583Z,64.08
2022-12-01T16:47:24.363Z,64.19
2022-12-01T16:49:55.355Z,64.11
2022-12-01T16:54:59.867Z,64.14
2022-12-01T16:57:31.610Z,64.19
2022-12-01T17:00:02.619Z,64.15
2022-12-01T17:02:33.871Z,64.21
2022-12-01T17:05:05.476Z,64.16
2022-12-01T17:07:36.551Z,64.16
2022-12-01T17:10:08.440Z,64.18
2022-12-01T17:12:39.678Z,64.17
2022-12-01T17:15:11.932Z,64.13
2022-12-01T17:17:42.772Z,64.12
2022-12-01T17:20:14.309Z,64.04
2022-12-01T17:22:45.275Z,63.93
2022-12-01T17:25:16.373Z,63.91
2022-12-01T17:27:47.263Z,63.92
2022-12-01T17:30:18.679Z,63.82
2022-12-01T17:32:49.807Z,63.81
2022-12-01T17:35:21.568Z,63.84
2022-12-01T17:37:52.520Z,63.85
2022-12-01T17:40:23.781Z,63.82
2022-12-01T17:42:55.173Z,63.61
2022-12-01T17:45:26.082Z,63.62
2022-12-01T17:47:56.945Z,63.66
2022-12-01T17:50:28.801Z,63.70
2022-12-01T17:52:59.766Z,63.63
2022-12-01T17:55:30.683Z,63.68
2022-12-01T17:58:03.604Z,63.70
2022-12-01T18:00:34.743Z,63.67
2022-12-01T18:03:05.695Z,63.66
2022-12-01T18:05:36.819Z,63.70
2022-12-01T18:08:07.755Z,63.82
2022-12-01T18:10:39.695Z,63.80
2022-12-01T18:13:11.071Z,63.74
2022-12-01T18:15:42.242Z,63.72
2022-12-01T18:18:13.486Z,63.48
2022-12-01T18:20:44.824Z,63.16
2022-12-01T18:23:16.030Z,63.22
2022-12-01T18:25:47.228Z,63.04
2022-12-01T18:28:18.134Z,63.09
2022-12-01T18:30:49.708Z,63.07
2022-12-01T18:33:21.239Z,63.09
2022-12-01T18:35:53.245Z,62.90
2022-12-01T18:38:25.855Z,62.98
2022-12-01T18:41:00.247Z,63.00
2022-12-01T18:43:31.710Z,63.05
2022-12-01T18:46:03.548Z,63.12
2022-12-01T18:48:35.302Z,63.21
2022-12-01T18:51:07.310Z,63.18
2022-12-01T18:53:38.481Z,63.16
2022-12-01T18:56:12.014Z,63.23
2022-12-01T18:58:43.268Z,63.23
2022-12-01T19:01:21.822Z,63.36
2022-12-01T19:03:52.847Z,63.34
2022-12-01T19:06:24.104Z,63.32
2022-12-01T19:08:55.640Z,63.28
2022-12-01T19:11:26.550Z,62.82
2022-12-01T19:13:58.151Z,62.89
2022-12-01T19:16:31.346Z,62.97
2022-12-01T19:19:02.769Z,63.18
2022-12-01T19:21:33.649Z,63.11
2022-12-01T19:24:04.470Z,63.14
2022-12-01T19:26:35.416Z,63.17
2022-12-01T19:29:06.391Z,63.06
2022-12-01T19:31:37.484Z,62.77
2022-12-01T19:34:08.392Z,62.83
2022-12-01T19:36:39.195Z,63.08
2022-12-01T19:39:10.376Z,63.08
2022-12-01T19:41:41.115Z,62.99
2022-12-01T19:44:12.826Z,63.13
2022-12-01T19:46:43.623Z,63.21
2022-12-01T19:49:14.514Z,63.24
2022-12-01T19:51:45.416Z,63.33
2022-12-01T19:54:17.934Z,63.34
2022-12-01T19:56:49.211Z,63.45
2022-12-01T19:59:20.048Z,63.62
2022-12-01T20:01:51.201Z,63.68
2022-12-01T20:04:22.253Z,63.67
2022-12-01T20:06:53.218Z,63.79
2022-12-01T20:09:24.045Z,63.80
2022-12-01T20:11:54.861Z,63.75
2022-12-01T20:14:25.790Z,63.96
2022-12-01T20:16:57.417Z,64.01
2022-12-01T20:19:28.231Z,63.95
2022-12-01T20:21:59.338Z,63.96
2022-12-01T20:24:30.618Z,64.12
2022-12-01T20:27:01.730Z,64.11
2022-12-01T20:29:32.632Z,64.06
2022-12-01T20:32:03.606Z,64.18
2022-12-01T20:34:35.871Z,64.19
2022-12-01T20:37:06.813Z,64.34
2022-12-01T20:39:39.456Z,64.34
2022-12-01T20:42:10.440Z,64.29
2022-12-01T20:44:41.485Z,64.30
2022-12-01T20:47:12.634Z,64.34
2022-12-01T20:49:44.142Z,64.31
2022-12-01T20:52:15.936Z,64.32
2022-12-01T20:54:47.421Z,64.39
2022-12-01T20:57:18.531Z,64.44
2022-12-01T20:59:49.668Z,64.43
2022-12-01T21:02:20.931Z,64.45
2022-12-01T21:04:56.313Z,64.44
2022-12-01T21:07:24.851Z,64.38
2022-12-01T21:09:55.879Z,64.47
2022-12-01T21:12:45.711Z,64.48
2022-12-01T21:15:17.938Z,64.53
2022-12-01T21:17:50.186Z,64.51
2022-12-01T21:20:22.583Z,64.58
2022-12-01T21:22:54.235Z,64.50
2022-12-01T21:25:25.714Z,64.52
2022-12-01T21:27:58.164Z,64.54
2022-12-01T21:30:30.330Z,64.58
2022-12-01T21:33:03.040Z,64.57
2022-12-01T21:35:34.576Z,64.57
2022-12-01T21:38:06.943Z,64.60
2022-12-01T21:40:37.813Z,64.64
2022-12-01T21:43:19.771Z,64.66
2022-12-01T21:45:55.157Z,64.68
2022-12-01T21:48:26.511Z,64.72
2022-12-01T21:51:04.665Z,64.70
2022-12-01T21:53:37.300Z,64.81
2022-12-01T21:56:09.999Z,64.75
2022-12-01T21:58:41.323Z,64.73
2022-12-01T22:01:19.459Z,64.70
2022-12-01T22:03:50.972Z,64.76
2022-12-01T22:06:30.378Z,64.76
2022-12-01T22:09:00.486Z,64.65
2022-12-01T22:11:31.676Z,64.68
2022-12-01T22:14:04.113Z,64.82
2022-12-01T22:16:36.343Z,64.71
2022-12-01T22:19:11.348Z,64.69
2022-12-01T22:21:49.176Z,64.88
2022-12-01T22:24:21.692Z,64.81
2022-12-01T22:26:56.797Z,64.81
2022-12-01T22:29:29.631Z,64.78
2022-12-01T22:32:08.023Z,64.81
2022-12-01T22:34:43.224Z,64.79
2022-12-01T22:37:24.027Z,64.80
2022-12-01T22:39:56.435Z,64.85
2022-12-01T22:42:33.968Z,64.84
2022-12-01T22:45:22.574Z,64.83
2022-12-01T22:47:55.001Z,64.86
2022-12-01T22:50:33.369Z,64.86
2022-12-01T22:53:05.711Z,64.85
2022-12-01T22:55:36.557Z,64.89
2022-12-01T22:58:21.246Z,64.89
2022-12-01T23:00:53.570Z,64.96
2022-12-01T23:03:24.542Z,64.98
2022-12-01T23:05:57.224Z,64.92
2022-12-01T23:08:28.112Z,64.89
2022-12-01T23:10:59.034Z,64.91
2022-12-01T23:13:29.969Z,64.91
2022-12-01T23:16:01.001Z,64.95
2022-12-01T23:18:32.306Z,65.06
2022-12-01T23:21:04.159Z,64.99
2022-12-01T23:23:36.754Z,64.99
2022-12-01T23:26:08.627Z,65.01
2022-12-01T23:28:39.495Z,65.06
2022-12-01T23:31:10.881Z,65.08
2022-12-01T23:33:41.880Z,65.07
2022-12-01T23:36:17.375Z,65.08
2022-12-01T23:38:49.084Z,65.09
2022-12-01T23:41:25.513Z,65.08
2022-12-01T23:43:55.475Z,65.09
2022-12-01T23:46:27.956Z,65.09
2022-12-01T23:49:03.213Z,65.08
2022-12-01T23:51:35.573Z,65.12
2022-12-01T23:54:10.994Z,65.12
2022-12-01T23:56:41.922Z,65.13
2022-12-01T23:59:14.114Z,65.12
